sensor_id;sensor_type;location;lat;lon;timestamp;P1;durP1;ratioP1;P2;durP2;ratioP2
2928;SDS011;1474;51.460;7.150;2022-11-18T00:01:45;3.83;;;1.05;;
2928;SDS011;1474;51.460;7.150;2022-11-18T00:04:11;0.40;;;0.40;;
2928;SDS011;1474;51.460;7.150;2022-11-18T00:06:37;4.30;;;0.40;;
2928;SDS011;1474;51.460;7.150;2022-11-18T00:09:02;1.17;;;0.85;;
2928;SDS011;1474;51.460;7.150;2022-11-18T00:11:28;5.07;;;0.82;;
2928;SDS011;1474;51.460;7.150;2022-11-18T00:14:20;1.55;;;0.52;;
2928;SDS011;1474;51.460;7.150;2022-11-18T00:19:19;1.17;;;0.88;;
2928;SDS011;1474;51.460;7.150;2022-11-18T00:21:46;2.58;;;0.73;;
2928;SDS011;1474;51.460;7.150;2022-11-18T00:24:12;0.98;;;0.70;;
2928;SDS011;1474;51.460;7.150;2022-11-18T00:26:37;1.02;;;0.80;;
2928;SDS011;1474;51.460;7.150;2022-11-18T00:29:03;0.40;;;0.40;;
2928;SDS011;1474;51.460;7.150;2022-11-18T00:31:29;1.08;;;0.65;;
2928;SDS011;1474;51.460;7.150;2022-11-18T00:33:55;1.38;;;0.65;;
2928;SDS011;1474;51.460;7.150;2022-11-18T00:36:20;0.95;;;0.63;;
2928;SDS011;1474;51.460;7.150;2022-11-18T00:38:46;4.90;;;0.68;;
2928;SDS011;1474;51.460;7.150;2022-11-18T00:41:13;1.33;;;0.80;;
2928;SDS011;1474;51.460;7.150;2022-11-18T00:43:40;0.30;;;0.30;;
2928;SDS011;1474;51.460;7.150;2022-11-18T00:46:07;0.98;;;0.38;;
2928;SDS011;1474;51.460;7.150;2022-11-18T00:48:34;1.63;;;1.48;;
2928;SDS011;1474;51.460;7.150;2022-11-18T00:53:39;1.25;;;0.73;;
2928;SDS011;1474;51.460;7.150;2022-11-18T00:56:05;1.05;;;0.80;;
2928;SDS011;1474;51.460;7.150;2022-11-18T00:58:31;2.22;;;0.50;;
2928;SDS011;1474;51.460;7.150;2022-11-18T01:00:56;2.20;;;1.17;;
2928;SDS011;1474;51.460;7.150;2022-11-18T01:03:22;1.92;;;0.63;;
2928;SDS011;1474;51.460;7.150;2022-11-18T01:05:49;0.98;;;0.68;;
2928;SDS011;1474;51.460;7.150;2022-11-18T01:08:15;2.58;;;0.68;;
2928;SDS011;1474;51.460;7.150;2022-11-18T01:10:42;1.00;;;0.90;;
2928;SDS011;1474;51.460;7.150;2022-11-18T01:13:12;0.85;;;0.47;;
2928;SDS011;1474;51.460;7.150;2022-11-18T01:15:50;2.30;;;0.70;;
2928;SDS011;1474;51.460;7.150;2022-11-18T01:18:22;1.83;;;0.47;;
2928;SDS011;1474;51.460;7.150;2022-11-18T01:20:51;1.80;;;0.75;;
2928;SDS011;1474;51.460;7.150;2022-11-18T01:23:18;3.65;;;0.95;;
2928;SDS011;1474;51.460;7.150;2022-11-18T01:25:45;5.53;;;1.05;;
2928;SDS011;1474;51.460;7.150;2022-11-18T01:28:12;0.30;;;0.30;;
2928;SDS011;1474;51.460;7.150;2022-11-18T01:30:39;1.27;;;0.40;;
2928;SDS011;1474;51.460;7.150;2022-11-18T01:33:06;1.50;;;0.60;;
2928;SDS011;1474;51.460;7.150;2022-11-18T01:35:35;0.82;;;0.63;;
2928;SDS011;1474;51.460;7.150;2022-11-18T01:38:03;0.70;;;0.70;;
2928;SDS011;1474;51.460;7.150;2022-11-18T01:40:29;2.25;;;0.95;;
2928;SDS011;1474;51.460;7.150;2022-11-18T01:42:55;0.80;;;0.73;;
2928;SDS011;1474;51.460;7.150;2022-11-18T01:45:39;3.97;;;0.73;;
2928;SDS011;1474;51.460;7.150;2022-11-18T01:48:08;0.85;;;0.40;;
2928;SDS011;1474;51.460;7.150;2022-11-18T01:50:39;0.95;;;0.70;;
2928;SDS011;1474;51.460;7.150;2022-11-18T01:53:08;0.20;;;0.20;;
2928;SDS011;1474;51.460;7.150;2022-11-18T01:55:40;1.50;;;1.05;;
2928;SDS011;1474;51.460;7.150;2022-11-18T01:58:11;0.90;;;0.50;;
2928;SDS011;1474;51.460;7.150;2022-11-18T02:00:45;1.45;;;1.10;;
2928;SDS011;1474;51.460;7.150;2022-11-18T02:03:10;0.60;;;0.45;;
2928;SDS011;1474;51.460;7.150;2022-11-18T02:05:37;1.45;;;0.73;;
2928;SDS011;1474;51.460;7.150;2022-11-18T02:08:04;0.73;;;0.50;;
2928;SDS011;1474;51.460;7.150;2022-11-18T02:10:31;1.27;;;0.85;;
2928;SDS011;1474;51.460;7.150;2022-11-18T02:12:57;1.95;;;0.57;;
2928;SDS011;1474;51.460;7.150;2022-11-18T02:18:51;0.47;;;0.35;;
2928;SDS011;1474;51.460;7.150;2022-11-18T02:24:22;1.05;;;0.70;;
2928;SDS011;1474;51.460;7.150;2022-11-18T02:29:45;0.52;;;0.43;;
2928;SDS011;1474;51.460;7.150;2022-11-18T02:37:50;0.57;;;0.55;;
2928;SDS011;1474;51.460;7.150;2022-11-18T02:40:27;3.35;;;1.20;;
2928;SDS011;1474;51.460;7.150;2022-11-18T02:42:57;4.93;;;1.33;;
2928;SDS011;1474;51.460;7.150;2022-11-18T02:45:27;0.40;;;0.38;;
2928;SDS011;1474;51.460;7.150;2022-11-18T02:47:55;0.30;;;0.30;;
2928;SDS011;1474;51.460;7.150;2022-11-18T02:52:55;1.02;;;0.50;;
2928;SDS011;1474;51.460;7.150;2022-11-18T02:55:24;0.17;;;0.17;;
2928;SDS011;1474;51.460;7.150;2022-11-18T02:57:54;1.00;;;0.88;;
2928;SDS011;1474;51.460;7.150;2022-11-18T03:00:21;4.68;;;0.95;;
2928;SDS011;1474;51.460;7.150;2022-11-18T03:02:48;1.23;;;1.10;;
2928;SDS011;1474;51.460;7.150;2022-11-18T03:05:20;0.40;;;0.40;;
2928;SDS011;1474;51.460;7.150;2022-11-18T03:08:12;0.77;;;0.50;;
2928;SDS011;1474;51.460;7.150;2022-11-18T03:10:46;0.55;;;0.55;;
2928;SDS011;1474;51.460;7.150;2022-11-18T03:14:07;0.65;;;0.60;;
2928;SDS011;1474;51.460;7.150;2022-11-18T03:16:22;0.95;;;0.50;;
2928;SDS011;1474;51.460;7.150;2022-11-18T03:19:00;0.52;;;0.47;;
2928;SDS011;1474;51.460;7.150;2022-11-18T03:21:41;0.30;;;0.30;;
2928;SDS011;1474;51.460;7.150;2022-11-18T03:24:30;2.90;;;0.60;;
2928;SDS011;1474;51.460;7.150;2022-11-18T03:27:01;1.00;;;0.82;;
2928;SDS011;1474;51.460;7.150;2022-11-18T03:29:33;1.65;;;1.10;;
2928;SDS011;1474;51.460;7.150;2022-11-18T03:32:04;1.60;;;1.50;;
2928;SDS011;1474;51.460;7.150;2022-11-18T03:34:36;0.73;;;0.63;;
2928;SDS011;1474;51.460;7.150;2022-11-18T03:37:09;1.73;;;0.50;;
2928;SDS011;1474;51.460;7.150;2022-11-18T03:39:39;0.38;;;0.30;;
2928;SDS011;1474;51.460;7.150;2022-11-18T03:42:18;0.70;;;0.70;;
2928;SDS011;1474;51.460;7.150;2022-11-18T03:44:47;0.90;;;0.77;;
2928;SDS011;1474;51.460;7.150;2022-11-18T03:47:27;0.45;;;0.43;;
2928;SDS011;1474;51.460;7.150;2022-11-18T03:49:59;0.82;;;0.82;;
2928;SDS011;1474;51.460;7.150;2022-11-18T03:52:32;0.68;;;0.60;;
2928;SDS011;1474;51.460;7.150;2022-11-18T03:55:01;1.88;;;0.60;;
2928;SDS011;1474;51.460;7.150;2022-11-18T03:57:39;1.27;;;1.05;;
2928;SDS011;1474;51.460;7.150;2022-11-18T04:00:11;0.70;;;0.50;;
2928;SDS011;1474;51.460;7.150;2022-11-18T04:02:39;4.05;;;0.70;;
2928;SDS011;1474;51.460;7.150;2022-11-18T04:05:05;1.50;;;0.68;;
2928;SDS011;1474;51.460;7.150;2022-11-18T04:07:54;1.33;;;1.05;;
2928;SDS011;1474;51.460;7.150;2022-11-18T04:10:30;3.60;;;1.05;;
2928;SDS011;1474;51.460;7.150;2022-11-18T04:13:46;1.00;;;0.93;;
2928;SDS011;1474;51.460;7.150;2022-11-18T04:15:57;3.45;;;0.88;;
2928;SDS011;1474;51.460;7.150;2022-11-18T04:18:22;0.50;;;0.50;;
2928;SDS011;1474;51.460;7.150;2022-11-18T04:20:48;4.15;;;1.02;;
2928;SDS011;1474;51.460;7.150;2022-11-18T04:23:13;0.85;;;0.82;;
2928;SDS011;1474;51.460;7.150;2022-11-18T04:25:39;2.33;;;0.38;;
2928;SDS011;1474;51.460;7.150;2022-11-18T04:28:05;1.67;;;1.00;;
2928;SDS011;1474;51.460;7.150;2022-11-18T04:30:31;4.68;;;1.90;;
2928;SDS011;1474;51.460;7.150;2022-11-18T04:32:57;1.10;;;0.95;;
2928;SDS011;1474;51.460;7.150;2022-11-18T04:35:22;2.28;;;1.60;;
2928;SDS011;1474;51.460;7.150;2022-11-18T04:37:49;0.40;;;0.40;;
2928;SDS011;1474;51.460;7.150;2022-11-18T04:40:14;2.00;;;0.75;;
2928;SDS011;1474;51.460;7.150;2022-11-18T04:42:40;0.85;;;0.65;;
2928;SDS011;1474;51.460;7.150;2022-11-18T04:45:06;2.10;;;0.77;;
2928;SDS011;1474;51.460;7.150;2022-11-18T04:47:33;1.60;;;0.90;;
2928;SDS011;1474;51.460;7.150;2022-11-18T04:49:58;1.33;;;1.23;;
2928;SDS011;1474;51.460;7.150;2022-11-18T04:52:24;0.40;;;0.40;;
2928;SDS011;1474;51.460;7.150;2022-11-18T04:54:49;1.20;;;0.60;;
2928;SDS011;1474;51.460;7.150;2022-11-18T04:57:15;0.73;;;0.57;;
2928;SDS011;1474;51.460;7.150;2022-11-18T04:59:44;0.98;;;0.80;;
2928;SDS011;1474;51.460;7.150;2022-11-18T05:02:09;0.55;;;0.55;;
2928;SDS011;1474;51.460;7.150;2022-11-18T05:04:35;0.95;;;0.85;;
2928;SDS011;1474;51.460;7.150;2022-11-18T05:07:01;3.55;;;0.95;;
2928;SDS011;1474;51.460;7.150;2022-11-18T05:09:28;2.40;;;0.80;;
2928;SDS011;1474;51.460;7.150;2022-11-18T05:11:54;1.15;;;0.93;;
2928;SDS011;1474;51.460;7.150;2022-11-18T05:14:38;2.55;;;0.70;;
2928;SDS011;1474;51.460;7.150;2022-11-18T05:17:05;1.77;;;1.00;;
2928;SDS011;1474;51.460;7.150;2022-11-18T05:19:32;1.67;;;1.02;;
2928;SDS011;1474;51.460;7.150;2022-11-18T05:21:58;2.50;;;0.98;;
2928;SDS011;1474;51.460;7.150;2022-11-18T05:24:24;5.57;;;1.15;;
2928;SDS011;1474;51.460;7.150;2022-11-18T05:26:51;0.95;;;0.60;;
2928;SDS011;1474;51.460;7.150;2022-11-18T05:29:18;2.72;;;1.20;;
2928;SDS011;1474;51.460;7.150;2022-11-18T05:31:44;2.55;;;0.60;;
2928;SDS011;1474;51.460;7.150;2022-11-18T05:34:11;2.25;;;0.98;;
2928;SDS011;1474;51.460;7.150;2022-11-18T05:36:37;5.07;;;2.33;;
2928;SDS011;1474;51.460;7.150;2022-11-18T05:39:03;1.33;;;1.23;;
2928;SDS011;1474;51.460;7.150;2022-11-18T05:41:29;2.22;;;1.10;;
2928;SDS011;1474;51.460;7.150;2022-11-18T05:44:13;4.05;;;1.13;;
2928;SDS011;1474;51.460;7.150;2022-11-18T05:46:39;1.67;;;1.58;;
2928;SDS011;1474;51.460;7.150;2022-11-18T05:49:05;4.18;;;0.80;;
2928;SDS011;1474;51.460;7.150;2022-11-18T05:51:31;1.92;;;0.68;;
2928;SDS011;1474;51.460;7.150;2022-11-18T05:54:01;5.28;;;1.08;;
2928;SDS011;1474;51.460;7.150;2022-11-18T05:56:32;0.80;;;0.73;;
2928;SDS011;1474;51.460;7.150;2022-11-18T05:59:01;1.77;;;1.00;;
2928;SDS011;1474;51.460;7.150;2022-11-18T06:01:28;0.60;;;0.60;;
2928;SDS011;1474;51.460;7.150;2022-11-18T06:04:01;0.52;;;0.52;;
2928;SDS011;1474;51.460;7.150;2022-11-18T06:06:31;1.50;;;0.67;;
2928;SDS011;1474;51.460;7.150;2022-11-18T06:09:01;1.90;;;1.17;;
2928;SDS011;1474;51.460;7.150;2022-11-18T06:11:29;4.63;;;1.10;;
2928;SDS011;1474;51.460;7.150;2022-11-18T06:14:02;3.70;;;1.42;;
2928;SDS011;1474;51.460;7.150;2022-11-18T06:16:53;2.25;;;0.95;;
2928;SDS011;1474;51.460;7.150;2022-11-18T06:19:21;1.30;;;0.87;;
2928;SDS011;1474;51.460;7.150;2022-11-18T06:21:47;7.97;;;1.23;;
2928;SDS011;1474;51.460;7.150;2022-11-18T06:24:13;1.55;;;0.80;;
2928;SDS011;1474;51.460;7.150;2022-11-18T06:26:39;1.05;;;0.93;;
2928;SDS011;1474;51.460;7.150;2022-11-18T06:29:06;1.67;;;1.25;;
2928;SDS011;1474;51.460;7.150;2022-11-18T06:31:35;3.05;;;0.88;;
2928;SDS011;1474;51.460;7.150;2022-11-18T06:34:00;1.35;;;0.93;;
2928;SDS011;1474;51.460;7.150;2022-11-18T06:36:26;1.15;;;0.77;;
2928;SDS011;1474;51.460;7.150;2022-11-18T06:38:52;1.15;;;0.85;;
2928;SDS011;1474;51.460;7.150;2022-11-18T06:41:17;0.85;;;0.57;;
2928;SDS011;1474;51.460;7.150;2022-11-18T06:43:43;0.93;;;0.73;;
2928;SDS011;1474;51.460;7.150;2022-11-18T06:46:12;2.33;;;1.15;;
2928;SDS011;1474;51.460;7.150;2022-11-18T06:48:58;1.80;;;1.10;;
2928;SDS011;1474;51.460;7.150;2022-11-18T06:51:25;5.28;;;1.88;;
2928;SDS011;1474;51.460;7.150;2022-11-18T06:53:52;1.10;;;0.73;;
2928;SDS011;1474;51.460;7.150;2022-11-18T06:56:18;1.20;;;1.10;;
2928;SDS011;1474;51.460;7.150;2022-11-18T06:58:45;0.80;;;0.80;;
2928;SDS011;1474;51.460;7.150;2022-11-18T07:01:15;1.10;;;1.00;;
2928;SDS011;1474;51.460;7.150;2022-11-18T07:06:09;1.13;;;0.90;;
2928;SDS011;1474;51.460;7.150;2022-11-18T07:08:36;0.93;;;0.90;;
2928;SDS011;1474;51.460;7.150;2022-11-18T07:11:04;1.60;;;1.50;;
2928;SDS011;1474;51.460;7.150;2022-11-18T07:13:32;1.48;;;0.70;;
2928;SDS011;1474;51.460;7.150;2022-11-18T07:16:02;1.52;;;1.42;;
2928;SDS011;1474;51.460;7.150;2022-11-18T07:18:33;2.58;;;1.38;;
2928;SDS011;1474;51.460;7.150;2022-11-18T07:21:09;1.55;;;1.00;;
2928;SDS011;1474;51.460;7.150;2022-11-18T07:23:37;1.52;;;1.00;;
2928;SDS011;1474;51.460;7.150;2022-11-18T07:26:03;0.93;;;0.93;;
2928;SDS011;1474;51.460;7.150;2022-11-18T07:28:29;4.30;;;1.30;;
2928;SDS011;1474;51.460;7.150;2022-11-18T07:31:05;2.22;;;1.30;;
2928;SDS011;1474;51.460;7.150;2022-11-18T07:33:32;2.47;;;1.08;;
2928;SDS011;1474;51.460;7.150;2022-11-18T07:36:02;1.55;;;1.23;;
2928;SDS011;1474;51.460;7.150;2022-11-18T07:38:30;0.80;;;0.70;;
2928;SDS011;1474;51.460;7.150;2022-11-18T07:41:06;1.92;;;1.35;;
2928;SDS011;1474;51.460;7.150;2022-11-18T07:43:34;1.02;;;0.98;;
2928;SDS011;1474;51.460;7.150;2022-11-18T07:46:10;1.13;;;1.02;;
2928;SDS011;1474;51.460;7.150;2022-11-18T07:48:38;2.05;;;1.27;;
2928;SDS011;1474;51.460;7.150;2022-11-18T07:51:04;1.38;;;1.27;;
2928;SDS011;1474;51.460;7.150;2022-11-18T07:53:30;1.63;;;1.50;;
2928;SDS011;1474;51.460;7.150;2022-11-18T07:55:57;0.88;;;0.73;;
2928;SDS011;1474;51.460;7.150;2022-11-18T07:58:23;1.33;;;1.20;;
2928;SDS011;1474;51.460;7.150;2022-11-18T08:00:49;1.50;;;1.10;;
2928;SDS011;1474;51.460;7.150;2022-11-18T08:03:14;1.60;;;1.15;;
2928;SDS011;1474;51.460;7.150;2022-11-18T08:05:40;2.40;;;1.27;;
2928;SDS011;1474;51.460;7.150;2022-11-18T08:08:05;1.30;;;0.98;;
2928;SDS011;1474;51.460;7.150;2022-11-18T08:10:31;2.00;;;1.20;;
2928;SDS011;1474;51.460;7.150;2022-11-18T08:12:57;1.17;;;1.02;;
2928;SDS011;1474;51.460;7.150;2022-11-18T08:15:23;2.30;;;1.15;;
2928;SDS011;1474;51.460;7.150;2022-11-18T08:17:49;4.13;;;2.10;;
2928;SDS011;1474;51.460;7.150;2022-11-18T08:20:14;3.20;;;1.15;;
2928;SDS011;1474;51.460;7.150;2022-11-18T08:22:40;2.35;;;1.77;;
2928;SDS011;1474;51.460;7.150;2022-11-18T08:25:06;1.00;;;0.82;;
2928;SDS011;1474;51.460;7.150;2022-11-18T08:27:33;2.05;;;1.15;;
2928;SDS011;1474;51.460;7.150;2022-11-18T08:29:58;1.10;;;1.00;;
2928;SDS011;1474;51.460;7.150;2022-11-18T08:32:24;4.82;;;1.70;;
2928;SDS011;1474;51.460;7.150;2022-11-18T08:34:52;2.90;;;1.63;;
2928;SDS011;1474;51.460;7.150;2022-11-18T08:37:18;1.70;;;1.30;;
2928;SDS011;1474;51.460;7.150;2022-11-18T08:39:46;1.75;;;0.73;;
2928;SDS011;1474;51.460;7.150;2022-11-18T08:42:12;2.17;;;1.42;;
2928;SDS011;1474;51.460;7.150;2022-11-18T08:44:40;1.58;;;1.25;;
2928;SDS011;1474;51.460;7.150;2022-11-18T08:47:06;1.13;;;0.80;;
2928;SDS011;1474;51.460;7.150;2022-11-18T08:49:31;2.10;;;1.60;;
2928;SDS011;1474;51.460;7.150;2022-11-18T08:51:57;1.05;;;0.82;;
2928;SDS011;1474;51.460;7.150;2022-11-18T08:54:22;2.05;;;1.08;;
2928;SDS011;1474;51.460;7.150;2022-11-18T08:56:48;1.55;;;1.35;;
2928;SDS011;1474;51.460;7.150;2022-11-18T08:59:14;1.65;;;1.55;;
2928;SDS011;1474;51.460;7.150;2022-11-18T09:01:40;2.13;;;0.70;;
2928;SDS011;1474;51.460;7.150;2022-11-18T09:04:07;2.67;;;1.75;;
2928;SDS011;1474;51.460;7.150;2022-11-18T09:06:33;3.70;;;1.20;;
2928;SDS011;1474;51.460;7.150;2022-11-18T09:08:59;2.03;;;1.15;;
2928;SDS011;1474;51.460;7.150;2022-11-18T09:11:25;4.63;;;1.33;;
2928;SDS011;1474;51.460;7.150;2022-11-18T09:13:55;0.85;;;0.77;;
2928;SDS011;1474;51.460;7.150;2022-11-18T09:16:23;3.63;;;1.38;;
2928;SDS011;1474;51.460;7.150;2022-11-18T09:18:50;2.30;;;1.38;;
2928;SDS011;1474;51.460;7.150;2022-11-18T09:21:16;1.98;;;1.17;;
2928;SDS011;1474;51.460;7.150;2022-11-18T09:23:43;2.83;;;1.83;;
2928;SDS011;1474;51.460;7.150;2022-11-18T09:26:10;1.42;;;0.95;;
2928;SDS011;1474;51.460;7.150;2022-11-18T09:28:40;1.30;;;1.20;;
2928;SDS011;1474;51.460;7.150;2022-11-18T09:31:07;1.77;;;1.40;;
2928;SDS011;1474;51.460;7.150;2022-11-18T09:33:34;2.95;;;1.83;;
2928;SDS011;1474;51.460;7.150;2022-11-18T09:36:00;2.58;;;1.52;;
2928;SDS011;1474;51.460;7.150;2022-11-18T09:38:30;3.42;;;1.60;;
2928;SDS011;1474;51.460;7.150;2022-11-18T09:41:01;2.65;;;1.48;;
2928;SDS011;1474;51.460;7.150;2022-11-18T09:47:01;3.33;;;1.67;;
2928;SDS011;1474;51.460;7.150;2022-11-18T09:49:33;4.85;;;1.20;;
2928;SDS011;1474;51.460;7.150;2022-11-18T09:52:02;1.48;;;1.38;;
2928;SDS011;1474;51.460;7.150;2022-11-18T09:54:34;1.77;;;1.17;;
2928;SDS011;1474;51.460;7.150;2022-11-18T09:57:01;1.00;;;0.90;;
2928;SDS011;1474;51.460;7.150;2022-11-18T09:59:31;0.93;;;0.85;;
2928;SDS011;1474;51.460;7.150;2022-11-18T10:02:01;3.42;;;1.42;;
2928;SDS011;1474;51.460;7.150;2022-11-18T10:04:43;5.25;;;2.25;;
2928;SDS011;1474;51.460;7.150;2022-11-18T10:07:19;2.05;;;1.60;;
2928;SDS011;1474;51.460;7.150;2022-11-18T10:10:00;1.95;;;1.42;;
2928;SDS011;1474;51.460;7.150;2022-11-18T10:12:36;3.38;;;1.63;;
2928;SDS011;1474;51.460;7.150;2022-11-18T10:15:38;1.73;;;1.33;;
2928;SDS011;1474;51.460;7.150;2022-11-18T10:18:21;4.72;;;2.08;;
2928;SDS011;1474;51.460;7.150;2022-11-18T10:23:25;1.25;;;0.93;;
2928;SDS011;1474;51.460;7.150;2022-11-18T10:25:55;1.95;;;0.93;;
2928;SDS011;1474;51.460;7.150;2022-11-18T10:28:23;2.33;;;1.23;;
2928;SDS011;1474;51.460;7.150;2022-11-18T10:33:23;1.23;;;1.05;;
2928;SDS011;1474;51.460;7.150;2022-11-18T10:35:51;1.63;;;1.10;;
2928;SDS011;1474;51.460;7.150;2022-11-18T10:38:41;3.90;;;1.42;;
2928;SDS011;1474;51.460;7.150;2022-11-18T10:41:11;9.07;;;1.75;;
2928;SDS011;1474;51.460;7.150;2022-11-18T10:43:41;2.92;;;1.08;;
2928;SDS011;1474;51.460;7.150;2022-11-18T10:46:29;2.70;;;1.45;;
2928;SDS011;1474;51.460;7.150;2022-11-18T10:49:17;1.77;;;1.33;;
2928;SDS011;1474;51.460;7.150;2022-11-18T10:56:48;5.13;;;1.63;;
2928;SDS011;1474;51.460;7.150;2022-11-18T11:00:03;2.53;;;0.90;;
2928;SDS011;1474;51.460;7.150;2022-11-18T11:04:43;1.23;;;1.13;;
2928;SDS011;1474;51.460;7.150;2022-11-18T11:12:34;1.65;;;1.20;;
2928;SDS011;1474;51.460;7.150;2022-11-18T11:15:09;3.25;;;1.38;;
2928;SDS011;1474;51.460;7.150;2022-11-18T11:17:57;3.65;;;1.00;;
2928;SDS011;1474;51.460;7.150;2022-11-18T11:20:44;2.35;;;1.13;;
2928;SDS011;1474;51.460;7.150;2022-11-18T11:23:13;0.82;;;0.82;;
2928;SDS011;1474;51.460;7.150;2022-11-18T11:25:59;1.70;;;1.17;;
2928;SDS011;1474;51.460;7.150;2022-11-18T11:28:28;1.00;;;1.00;;
2928;SDS011;1474;51.460;7.150;2022-11-18T11:31:15;1.08;;;0.60;;
2928;SDS011;1474;51.460;7.150;2022-11-18T11:45:03;5.32;;;1.48;;
2928;SDS011;1474;51.460;7.150;2022-11-18T11:50:48;1.63;;;1.02;;
2928;SDS011;1474;51.460;7.150;2022-11-18T12:07:13;2.30;;;1.45;;
2928;SDS011;1474;51.460;7.150;2022-11-18T12:12:43;1.67;;;1.58;;
2928;SDS011;1474;51.460;7.150;2022-11-18T12:24:23;1.25;;;0.90;;
2928;SDS011;1474;51.460;7.150;2022-11-18T12:26:57;1.10;;;0.82;;
2928;SDS011;1474;51.460;7.150;2022-11-18T12:29:25;1.15;;;0.77;;
2928;SDS011;1474;51.460;7.150;2022-11-18T12:37:42;0.73;;;0.73;;
2928;SDS011;1474;51.460;7.150;2022-11-18T12:42:58;2.65;;;0.77;;
2928;SDS011;1474;51.460;7.150;2022-11-18T12:50:57;1.38;;;0.80;;
2928;SDS011;1474;51.460;7.150;2022-11-18T12:53:37;0.80;;;0.68;;
2928;SDS011;1474;51.460;7.150;2022-11-18T12:56:22;3.13;;;1.02;;
2928;SDS011;1474;51.460;7.150;2022-11-18T12:58:53;4.07;;;1.63;;
2928;SDS011;1474;51.460;7.150;2022-11-18T13:01:24;4.07;;;1.08;;
2928;SDS011;1474;51.460;7.150;2022-11-18T13:04:03;4.20;;;1.52;;
2928;SDS011;1474;51.460;7.150;2022-11-18T13:06:33;0.90;;;0.73;;
2928;SDS011;1474;51.460;7.150;2022-11-18T13:09:03;1.67;;;0.60;;
2928;SDS011;1474;51.460;7.150;2022-11-18T13:11:44;1.30;;;0.93;;
2928;SDS011;1474;51.460;7.150;2022-11-18T13:14:15;3.55;;;0.88;;
2928;SDS011;1474;51.460;7.150;2022-11-18T13:17:00;1.85;;;0.60;;
2928;SDS011;1474;51.460;7.150;2022-11-18T13:19:55;1.95;;;1.05;;
2928;SDS011;1474;51.460;7.150;2022-11-18T13:22:21;4.32;;;1.38;;
2928;SDS011;1474;51.460;7.150;2022-11-18T13:25:24;5.13;;;0.93;;
2928;SDS011;1474;51.460;7.150;2022-11-18T13:27:57;2.35;;;1.20;;
2928;SDS011;1474;51.460;7.150;2022-11-18T13:30:50;2.95;;;1.27;;
2928;SDS011;1474;51.460;7.150;2022-11-18T13:33:33;1.85;;;1.02;;
2928;SDS011;1474;51.460;7.150;2022-11-18T13:36:01;1.50;;;1.40;;
2928;SDS011;1474;51.460;7.150;2022-11-18T13:38:26;2.25;;;1.10;;
2928;SDS011;1474;51.460;7.150;2022-11-18T13:40:52;3.42;;;0.85;;
2928;SDS011;1474;51.460;7.150;2022-11-18T13:43:32;1.13;;;0.38;;
2928;SDS011;1474;51.460;7.150;2022-11-18T13:45:59;1.15;;;0.70;;
2928;SDS011;1474;51.460;7.150;2022-11-18T13:48:39;0.60;;;0.57;;
2928;SDS011;1474;51.460;7.150;2022-11-18T13:51:11;1.30;;;0.60;;
2928;SDS011;1474;51.460;7.150;2022-11-18T13:53:37;4.00;;;0.73;;
2928;SDS011;1474;51.460;7.150;2022-11-18T14:01:16;3.22;;;1.02;;
2928;SDS011;1474;51.460;7.150;2022-11-18T14:04:19;4.43;;;0.80;;
2928;SDS011;1474;51.460;7.150;2022-11-18T14:06:42;2.35;;;1.17;;
2928;SDS011;1474;51.460;7.150;2022-11-18T14:09:18;2.22;;;0.55;;
2928;SDS011;1474;51.460;7.150;2022-11-18T14:14:38;2.10;;;0.68;;
2928;SDS011;1474;51.460;7.150;2022-11-18T14:17:21;2.55;;;1.05;;
2928;SDS011;1474;51.460;7.150;2022-11-18T14:19:58;0.57;;;0.57;;
2928;SDS011;1474;51.460;7.150;2022-11-18T14:22:31;2.60;;;0.90;;
2928;SDS011;1474;51.460;7.150;2022-11-18T14:35:42;1.08;;;0.65;;
2928;SDS011;1474;51.460;7.150;2022-11-18T14:40:53;3.95;;;1.48;;
2928;SDS011;1474;51.460;7.150;2022-11-18T14:43:24;1.90;;;0.68;;
2928;SDS011;1474;51.460;7.150;2022-11-18T14:45:51;1.55;;;0.93;;
2928;SDS011;1474;51.460;7.150;2022-11-18T14:48:19;1.00;;;0.60;;
2928;SDS011;1474;51.460;7.150;2022-11-18T14:50:46;1.58;;;0.68;;
2928;SDS011;1474;51.460;7.150;2022-11-18T14:53:12;2.25;;;1.00;;
2928;SDS011;1474;51.460;7.150;2022-11-18T14:55:38;2.00;;;1.35;;
2928;SDS011;1474;51.460;7.150;2022-11-18T14:58:04;2.75;;;1.20;;
2928;SDS011;1474;51.460;7.150;2022-11-18T15:00:32;5.25;;;1.88;;
2928;SDS011;1474;51.460;7.150;2022-11-18T15:02:58;4.75;;;1.13;;
2928;SDS011;1474;51.460;7.150;2022-11-18T15:05:23;2.00;;;1.05;;
2928;SDS011;1474;51.460;7.150;2022-11-18T15:07:49;2.38;;;0.80;;
2928;SDS011;1474;51.460;7.150;2022-11-18T15:10:15;2.20;;;0.98;;
2928;SDS011;1474;51.460;7.150;2022-11-18T15:12:41;1.13;;;0.70;;
2928;SDS011;1474;51.460;7.150;2022-11-18T15:15:06;1.15;;;0.95;;
2928;SDS011;1474;51.460;7.150;2022-11-18T15:17:32;2.08;;;1.85;;
2928;SDS011;1474;51.460;7.150;2022-11-18T15:19:58;2.03;;;1.73;;
2928;SDS011;1474;51.460;7.150;2022-11-18T15:22:24;2.88;;;2.45;;
2928;SDS011;1474;51.460;7.150;2022-11-18T15:24:49;2.90;;;1.90;;
2928;SDS011;1474;51.460;7.150;2022-11-18T15:27:15;2.67;;;1.80;;
2928;SDS011;1474;51.460;7.150;2022-11-18T15:29:40;1.38;;;1.23;;
2928;SDS011;1474;51.460;7.150;2022-11-18T15:32:06;2.17;;;1.73;;
2928;SDS011;1474;51.460;7.150;2022-11-18T15:34:32;4.53;;;1.52;;
2928;SDS011;1474;51.460;7.150;2022-11-18T15:36:57;3.08;;;1.63;;
2928;SDS011;1474;51.460;7.150;2022-11-18T15:39:23;1.40;;;1.30;;
2928;SDS011;1474;51.460;7.150;2022-11-18T15:41:52;8.98;;;1.88;;
2928;SDS011;1474;51.460;7.150;2022-11-18T15:44:19;3.17;;;2.15;;
2928;SDS011;1474;51.460;7.150;2022-11-18T15:46:45;2.20;;;1.60;;
2928;SDS011;1474;51.460;7.150;2022-11-18T15:49:12;9.55;;;2.25;;
2928;SDS011;1474;51.460;7.150;2022-11-18T15:51:38;2.92;;;2.08;;
2928;SDS011;1474;51.460;7.150;2022-11-18T15:54:04;5.18;;;2.20;;
2928;SDS011;1474;51.460;7.150;2022-11-18T15:56:30;1.60;;;1.35;;
2928;SDS011;1474;51.460;7.150;2022-11-18T15:59:00;2.83;;;1.60;;
2928;SDS011;1474;51.460;7.150;2022-11-18T16:01:31;3.30;;;2.00;;
2928;SDS011;1474;51.460;7.150;2022-11-18T16:03:58;3.03;;;1.77;;
2928;SDS011;1474;51.460;7.150;2022-11-18T16:06:24;2.60;;;2.30;;
2928;SDS011;1474;51.460;7.150;2022-11-18T16:08:50;4.47;;;2.78;;
2928;SDS011;1474;51.460;7.150;2022-11-18T16:11:17;2.08;;;1.92;;
2928;SDS011;1474;51.460;7.150;2022-11-18T16:14:02;3.30;;;2.65;;
2928;SDS011;1474;51.460;7.150;2022-11-18T16:16:29;2.50;;;2.30;;
2928;SDS011;1474;51.460;7.150;2022-11-18T16:18:56;5.45;;;2.45;;
2928;SDS011;1474;51.460;7.150;2022-11-18T16:21:26;7.22;;;3.13;;
2928;SDS011;1474;51.460;7.150;2022-11-18T16:23:56;4.75;;;2.97;;
2928;SDS011;1474;51.460;7.150;2022-11-18T16:26:23;3.30;;;2.30;;
2928;SDS011;1474;51.460;7.150;2022-11-18T16:28:50;4.18;;;2.33;;
2928;SDS011;1474;51.460;7.150;2022-11-18T16:31:15;3.50;;;2.65;;
2928;SDS011;1474;51.460;7.150;2022-11-18T16:34:03;6.28;;;2.40;;
2928;SDS011;1474;51.460;7.150;2022-11-18T16:36:37;4.50;;;2.80;;
2928;SDS011;1474;51.460;7.150;2022-11-18T16:39:05;6.07;;;2.35;;
2928;SDS011;1474;51.460;7.150;2022-11-18T16:41:35;4.88;;;2.42;;
2928;SDS011;1474;51.460;7.150;2022-11-18T16:44:05;4.13;;;2.40;;
2928;SDS011;1474;51.460;7.150;2022-11-18T16:46:33;2.83;;;2.50;;
2928;SDS011;1474;51.460;7.150;2022-11-18T16:49:00;2.40;;;2.20;;
2928;SDS011;1474;51.460;7.150;2022-11-18T16:51:27;2.05;;;1.85;;
2928;SDS011;1474;51.460;7.150;2022-11-18T16:53:55;3.90;;;2.13;;
2928;SDS011;1474;51.460;7.150;2022-11-18T16:56:32;3.53;;;1.90;;
2928;SDS011;1474;51.460;7.150;2022-11-18T16:59:20;2.30;;;1.70;;
2928;SDS011;1474;51.460;7.150;2022-11-18T17:01:46;3.28;;;2.65;;
2928;SDS011;1474;51.460;7.150;2022-11-18T17:04:12;6.18;;;1.90;;
2928;SDS011;1474;51.460;7.150;2022-11-18T17:06:39;2.92;;;2.38;;
2928;SDS011;1474;51.460;7.150;2022-11-18T17:09:06;2.08;;;1.80;;
2928;SDS011;1474;51.460;7.150;2022-11-18T17:14:01;5.03;;;2.90;;
2928;SDS011;1474;51.460;7.150;2022-11-18T17:16:27;5.00;;;3.10;;
2928;SDS011;1474;51.460;7.150;2022-11-18T17:18:53;5.50;;;4.03;;
2928;SDS011;1474;51.460;7.150;2022-11-18T17:21:20;5.97;;;4.03;;
2928;SDS011;1474;51.460;7.150;2022-11-18T17:23:46;3.85;;;3.45;;
2928;SDS011;1474;51.460;7.150;2022-11-18T17:26:14;4.25;;;3.85;;
2928;SDS011;1474;51.460;7.150;2022-11-18T17:28:41;4.70;;;3.22;;
2928;SDS011;1474;51.460;7.150;2022-11-18T17:31:07;4.25;;;3.35;;
2928;SDS011;1474;51.460;7.150;2022-11-18T17:33:41;8.77;;;3.30;;
2928;SDS011;1474;51.460;7.150;2022-11-18T17:36:08;5.43;;;3.33;;
2928;SDS011;1474;51.460;7.150;2022-11-18T17:38:36;5.82;;;3.47;;